N6861W -N43

Flight info

Callsign N6861W
Flight time N/A
Altitude VFR/065
Route
Aircraft PA28/L-DOV/C

Departure

Time N/A
Airport -

Arrival

Time 2026-04-12 15:40
Airport Braden Airpark (N43)
Time Latitude Longitude Altitude Speed Heading
2026-04-12 15:03 41.40075 -74.40441 6414 ft 133 kts 234°
2026-04-12 15:03 41.39469 -74.41380 6390 ft 135 kts 234°
2026-04-12 15:04 41.38848 -74.42306 6397 ft 133 kts 232°
2026-04-12 15:04 41.38205 -74.43196 6301 ft 132 kts 230°
2026-04-12 15:04 41.37559 -74.43948 6458 ft 116 kts 223°
2026-04-12 15:04 41.36903 -74.44549 6498 ft 116 kts 222°
2026-04-12 15:05 41.36195 -74.45137 6455 ft 121 kts 218°
2026-04-12 15:05 41.35454 -74.45684 6457 ft 119 kts 216°
2026-04-12 15:05 41.34747 -74.46196 6565 ft 113 kts 217°
2026-04-12 15:05 41.34055 -74.46699 6630 ft 115 kts 218°
2026-04-12 15:06 41.33345 -74.47308 6488 ft 126 kts 222°
2026-04-12 15:06 41.32651 -74.47995 6500 ft 125 kts 225°
2026-04-12 15:06 41.31983 -74.48727 6501 ft 123 kts 227°
2026-04-12 15:06 41.31355 -74.49501 6440 ft 125 kts 231°
2026-04-12 15:07 41.30774 -74.50340 6467 ft 120 kts 235°
2026-04-12 15:07 41.30257 -74.51222 6499 ft 121 kts 239°
2026-04-12 15:07 41.29785 -74.52132 6572 ft 119 kts 241°
2026-04-12 15:07 41.29345 -74.53059 6656 ft 118 kts 244°
2026-04-12 15:08 41.28918 -74.53996 6684 ft 121 kts 241°
2026-04-12 15:08 41.28410 -74.54913 6695 ft 123 kts 236°
2026-04-12 15:08 41.27773 -74.55764 6565 ft 134 kts 229°
2026-04-12 15:08 41.27070 -74.56589 6472 ft 134 kts 225°
2026-04-12 15:09 41.26310 -74.57312 6444 ft 135 kts 220°
2026-04-12 15:09 41.25513 -74.57968 6419 ft 134 kts 218°
2026-04-12 15:09 41.24714 -74.58565 6394 ft 133 kts 217°
2026-04-12 15:09 41.23917 -74.59209 6394 ft 128 kts 220°
2026-04-12 15:10 41.23205 -74.59850 6485 ft 124 kts 221°
2026-04-12 15:10 41.22442 -74.60486 6437 ft 131 kts 220°
2026-04-12 15:10 41.21681 -74.61154 6425 ft 131 kts 221°
2026-04-12 15:10 41.20932 -74.61842 6404 ft 130 kts 223°
2026-04-12 15:11 41.20239 -74.62585 6471 ft 125 kts 228°
2026-04-12 15:11 41.19630 -74.63388 6537 ft 124 kts 233°
2026-04-12 15:11 41.19024 -74.64253 6470 ft 130 kts 232°
2026-04-12 15:11 41.18424 -74.65134 6532 ft 125 kts 236°
2026-04-12 15:12 41.17920 -74.66066 6529 ft 125 kts 238°
2026-04-12 15:12 41.17359 -74.66977 6470 ft 129 kts 233°
2026-04-12 15:12 41.16718 -74.67791 6496 ft 130 kts 224°
2026-04-12 15:12 41.15965 -74.68486 6518 ft 133 kts 220°
2026-04-12 15:13 41.15182 -74.69153 6408 ft 136 kts 220°
2026-04-12 15:13 41.14388 -74.69841 6406 ft 132 kts 220°
2026-04-12 15:13 41.13649 -74.70514 6420 ft 131 kts 220°
2026-04-12 15:13 41.12905 -74.71197 6451 ft 130 kts 223°
2026-04-12 15:14 41.12175 -74.71911 6418 ft 131 kts 224°
2026-04-12 15:14 41.11455 -74.72652 6379 ft 130 kts 225°
2026-04-12 15:14 41.10783 -74.73426 6393 ft 125 kts 228°
2026-04-12 15:14 41.10133 -74.74175 6363 ft 123 kts 226°
2026-04-12 15:15 41.09493 -74.74886 6394 ft 119 kts 228°
2026-04-12 15:15 41.08889 -74.75658 6361 ft 120 kts 234°
2026-04-12 15:15 41.08367 -74.76471 6453 ft 115 kts 237°
2026-04-12 15:15 41.07881 -74.77339 6436 ft 119 kts 240°
2026-04-12 15:16 41.07399 -74.78223 6482 ft 118 kts 236°
2026-04-12 15:16 41.06831 -74.79033 6450 ft 123 kts 231°
2026-04-12 15:16 41.06164 -74.79767 6422 ft 125 kts 224°
2026-04-12 15:16 41.05462 -74.80435 6436 ft 124 kts 222°
2026-04-12 15:17 41.04719 -74.81056 6412 ft 127 kts 219°
2026-04-12 15:17 41.03981 -74.81682 6416 ft 125 kts 220°
2026-04-12 15:17 41.03249 -74.82310 6409 ft 125 kts 220°
2026-04-12 15:17 41.02519 -74.82937 6417 ft 125 kts 221°
2026-04-12 15:18 41.01788 -74.83565 6403 ft 125 kts 223°
2026-04-12 15:18 41.01127 -74.84304 6396 ft 123 kts 229°
2026-04-12 15:18 41.00539 -74.85112 6389 ft 121 kts 235°
2026-04-12 15:18 41.00029 -74.85982 6409 ft 120 kts 236°
2026-04-12 15:19 40.99482 -74.86826 6425 ft 121 kts 235°
2026-04-12 15:19 40.98925 -74.87665 6438 ft 121 kts 235°
2026-04-12 15:19 40.98390 -74.88522 6447 ft 121 kts 235°
2026-04-12 15:19 40.97831 -74.89368 6423 ft 122 kts 236°
2026-04-12 15:20 40.97324 -74.90261 6466 ft 120 kts 241°
2026-04-12 15:20 40.96874 -74.91184 6485 ft 121 kts 240°
2026-04-12 15:20 40.96368 -74.92088 6459 ft 123 kts 239°
2026-04-12 15:20 40.95823 -74.92952 6470 ft 122 kts 233°
2026-04-12 15:21 40.95199 -74.93716 6460 ft 125 kts 226°
2026-04-12 15:21 40.94508 -74.94456 6414 ft 127 kts 225°
2026-04-12 15:21 40.93861 -74.95208 6433 ft 123 kts 229°
2026-04-12 15:21 40.93221 -74.95964 6462 ft 123 kts 229°
2026-04-12 15:22 40.92603 -74.96751 6485 ft 122 kts 232°
2026-04-12 15:22 40.92070 -74.97599 6464 ft 121 kts 239°
2026-04-12 15:22 40.91620 -74.98536 6461 ft 121 kts 245°
2026-04-12 15:22 40.91252 -74.99534 6462 ft 120 kts 251°
2026-04-12 15:23 40.90939 -75.00554 6466 ft 119 kts 251°
2026-04-12 15:23 40.90585 -75.01534 6490 ft 118 kts 243°
2026-04-12 15:23 40.90139 -75.02433 6551 ft 117 kts 240°
2026-04-12 15:23 40.89623 -75.03286 6510 ft 124 kts 233°
2026-04-12 15:24 40.89000 -75.04096 6482 ft 125 kts 230°
2026-04-12 15:24 40.88356 -75.04856 6505 ft 124 kts 228°
2026-04-12 15:24 40.87724 -75.05641 6459 ft 125 kts 229°
2026-04-12 15:24 40.87088 -75.06398 6512 ft 121 kts 226°
2026-04-12 15:25 40.86447 -75.07107 6529 ft 120 kts 227°
2026-04-12 15:25 40.85819 -75.07849 6510 ft 123 kts 228°
2026-04-12 15:25 40.85179 -75.08609 6527 ft 123 kts 228°
2026-04-12 15:25 40.84579 -75.09384 6520 ft 122 kts 232°
2026-04-12 15:26 40.84063 -75.10244 6375 ft 117 kts 241°
2026-04-12 15:26 40.83591 -75.11129 6095 ft 118 kts 237°
2026-04-12 15:26 40.83071 -75.11953 5843 ft 119 kts 232°
2026-04-12 15:26 40.82501 -75.12746 5573 ft 118 kts 230°
2026-04-12 15:27 40.81939 -75.13518 5320 ft 116 kts 231°
2026-04-12 15:27 40.81388 -75.14278 5041 ft 115 kts 227°
2026-04-12 15:27 40.80823 -75.15050 4724 ft 118 kts 229°
2026-04-12 15:27 40.80277 -75.15856 4509 ft 117 kts 230°
2026-04-12 15:28 40.79749 -75.16672 4336 ft 117 kts 230°
2026-04-12 15:28 40.79250 -75.17462 4078 ft 107 kts 229°
2026-04-12 15:28 40.78798 -75.18195 3756 ft 99 kts 229°
2026-04-12 15:28 40.78362 -75.18894 3360 ft 97 kts 225°
2026-04-12 15:29 40.77941 -75.19548 3107 ft 92 kts 224°
2026-04-12 15:29 40.77488 -75.20248 2952 ft 107 kts 224°
2026-04-12 15:29 40.76980 -75.21009 2778 ft 114 kts 225°
2026-04-12 15:29 40.76468 -75.21816 2728 ft 116 kts 227°
2026-04-12 15:30 40.76152 -75.22382 2674 ft 116 kts 228°
2026-04-12 15:30 40.75694 -75.23249 2656 ft 114 kts 229°
2026-04-12 15:30 40.75256 -75.24107 2631 ft 111 kts 231°
2026-04-12 15:30 40.74855 -75.24964 2462 ft 111 kts 234°
2026-04-12 15:31 40.74413 -75.25866 2186 ft 120 kts 228°
2026-04-12 15:31 40.73872 -75.26718 1962 ft 119 kts 222°
2026-04-12 15:31 40.73369 -75.27527 1800 ft 111 kts 225°
2026-04-12 15:31 40.73253 -75.28483 1776 ft 109 kts 290°
2026-04-12 15:32 40.73874 -75.29068 1540 ft 116 kts
2026-04-12 15:32 40.74462 -75.28597 1430 ft 94 kts 80°
2026-04-12 15:32 40.74355 -75.27840 1356 ft 85 kts 117°
2026-04-12 15:32 40.74125 -75.27083 1302 ft 92 kts 115°
2026-04-12 15:33 40.73919 -75.26323 1278 ft 83 kts 113°
2026-04-12 15:33 40.73707 -75.25715 1327 ft 63 kts 141°
2026-04-12 15:33 40.73270 -75.25645 1370 ft 68 kts 179°
2026-04-12 15:33 40.72748 -75.25722 1337 ft 80 kts 183°
2026-04-12 15:34 40.72180 -75.25869 1219 ft 85 kts 180°
2026-04-12 15:34 40.71653 -75.25549 1083 ft 88 kts 125°
2026-04-12 15:34 40.71811 -75.24908 1150 ft 87 kts 34°
2026-04-12 15:34 40.72395 -75.24643 1057 ft 89 kts 36°
2026-04-12 15:35 40.72823 -75.24162 901 ft 80 kts 54°
2026-04-12 15:35 40.73352 -75.24009 681 ft 85 kts 344°
2026-04-12 15:35 40.73893 -75.24192 452 ft 75 kts 345°
2026-04-12 15:35 40.74353 -75.24339 497 ft 67 kts 351°
2026-04-12 15:36 40.74832 -75.24450 752 ft 80 kts 355°
2026-04-12 15:36 40.75418 -75.24558 1152 ft 91 kts 356°
2026-04-12 15:36 40.75992 -75.25134 1438 ft 120 kts 292°
2026-04-12 15:36 40.76061 -75.26283 1626 ft 129 kts 252°
2026-04-12 15:37 40.75722 -75.27411 1768 ft 134 kts 218°
2026-04-12 15:37 40.74880 -75.27862 1796 ft 130 kts 175°
2026-04-12 15:37 40.73988 -75.27639 1757 ft 133 kts 162°
2026-04-12 15:37 40.73153 -75.27350 1609 ft 115 kts 162°
2026-04-12 15:38 40.72399 -75.27085 1436 ft 107 kts 161°
2026-04-12 15:38 40.71785 -75.26843 1448 ft 80 kts 159°
2026-04-12 15:38 40.71331 -75.26560 1472 ft 74 kts 135°
2026-04-12 15:38 40.71182 -75.25920 1410 ft 76 kts 94°
2026-04-12 15:39 40.71308 -75.25238 1369 ft 77 kts 79°
2026-04-12 15:39 40.71502 -75.24586 1286 ft 77 kts 71°
2026-04-12 15:39 40.71840 -75.24054 1128 ft 77 kts 39°
2026-04-12 15:39 40.72367 -75.23856 1046 ft 75 kts
2026-04-12 15:40 40.72914 -75.23906 810 ft 82 kts 356°
2026-04-12 15:40 40.73470 -75.24054 565 ft 80 kts 349°
2026-04-12 15:40 40.73819 -75.24168 425 ft 73 kts 350°
2026-04-12 15:40 40.74323 -75.24335 409 ft 31 kts 346°
2026-04-12 15:41 40.74439 -75.24366 410 ft 12 kts
2026-04-12 15:41 40.74478 -75.24365 410 ft 0 kts 245°
2026-04-12 15:42 40.74450 -75.24372 410 ft 13 kts 162°
2026-04-12 15:42 40.74332 -75.24332 409 ft 22 kts 167°
2026-04-12 15:43 40.74231 -75.24192 409 ft 2 kts 90°
2026-04-12 15:43 40.74230 -75.24180 408 ft 4 kts 116°
2026-04-12 15:43 40.74221 -75.24172 408 ft 1 kts 178°
2026-04-12 15:43 40.74214 -75.24175 408 ft 1 kts 226°
2026-04-12 15:44 40.74214 -75.24177 408 ft 0 kts 256°